sensor_id;sensor_type;location;lat;lon;timestamp;pressure;altitude;pressure_sealevel;temperature;humidity
44926;BME280;30662;51.210;7.656;2024-01-15T00:02:12;148351.22;;;-1.91;100.00
44926;BME280;30662;51.210;7.656;2024-01-15T00:04:39;148363.78;;;-1.86;100.00
44926;BME280;30662;51.210;7.656;2024-01-15T00:07:06;148356.22;;;-1.89;100.00
44926;BME280;30662;51.210;7.656;2024-01-15T00:09:33;148362.53;;;-1.87;100.00
44926;BME280;30662;51.210;7.656;2024-01-15T00:12:01;148347.47;;;-1.93;100.00
44926;BME280;30662;51.210;7.656;2024-01-15T00:14:28;148376.28;;;-1.81;100.00
44926;BME280;30662;51.210;7.656;2024-01-15T00:16:55;148371.28;;;-1.83;100.00
44926;BME280;30662;51.210;7.656;2024-01-15T00:19:23;148400.13;;;-1.72;100.00
44926;BME280;30662;51.210;7.656;2024-01-15T00:21:50;148391.31;;;-1.75;100.00
44926;BME280;30662;51.210;7.656;2024-01-15T00:24:17;148393.81;;;-1.74;100.00
44926;BME280;30662;51.210;7.656;2024-01-15T00:26:44;148396.38;;;-1.73;100.00
44926;BME280;30662;51.210;7.656;2024-01-15T00:29:11;148401.38;;;-1.71;100.00
44926;BME280;30662;51.210;7.656;2024-01-15T00:31:37;148388.81;;;-1.76;100.00
44926;BME280;30662;51.210;7.656;2024-01-15T00:34:04;148385.06;;;-1.78;100.00
44926;BME280;30662;51.210;7.656;2024-01-15T00:36:32;148383.81;;;-1.78;100.00
44926;BME280;30662;51.210;7.656;2024-01-15T00:38:59;148377.56;;;-1.81;100.00
44926;BME280;30662;51.210;7.656;2024-01-15T00:41:26;148377.56;;;-1.81;100.00
44926;BME280;30662;51.210;7.656;2024-01-15T00:43:53;148370.03;;;-1.84;100.00
44926;BME280;30662;51.210;7.656;2024-01-15T00:46:19;148382.56;;;-1.79;100.00
44926;BME280;30662;51.210;7.656;2024-01-15T00:48:46;148401.38;;;-1.71;100.00
44926;BME280;30662;51.210;7.656;2024-01-15T00:51:13;148390.06;;;-1.76;100.00
44926;BME280;30662;51.210;7.656;2024-01-15T00:53:42;148358.72;;;-1.88;100.00
44926;BME280;30662;51.210;7.656;2024-01-15T00:56:08;148361.28;;;-1.87;100.00
44926;BME280;30662;51.210;7.656;2024-01-15T00:58:35;148360.03;;;-1.88;100.00
44926;BME280;30662;51.210;7.656;2024-01-15T01:01:02;148351.22;;;-1.91;100.00
44926;BME280;30662;51.210;7.656;2024-01-15T01:03:30;148390.06;;;-1.76;100.00
44926;BME280;30662;51.210;7.656;2024-01-15T01:05:56;148391.31;;;-1.75;100.00
44926;BME280;30662;51.210;7.656;2024-01-15T01:08:23;148392.56;;;-1.75;100.00
44926;BME280;30662;51.210;7.656;2024-01-15T01:10:52;148388.81;;;-1.76;100.00
44926;BME280;30662;51.210;7.656;2024-01-15T01:13:18;148398.88;;;-1.72;100.00
44926;BME280;30662;51.210;7.656;2024-01-15T01:15:45;148406.38;;;-1.69;100.00
44926;BME280;30662;51.210;7.656;2024-01-15T01:18:12;148390.06;;;-1.76;100.00
44926;BME280;30662;51.210;7.656;2024-01-15T01:20:39;148410.13;;;-1.68;100.00
44926;BME280;30662;51.210;7.656;2024-01-15T01:23:06;148388.81;;;-1.76;100.00
44926;BME280;30662;51.210;7.656;2024-01-15T01:25:33;148373.78;;;-1.82;100.00
44926;BME280;30662;51.210;7.656;2024-01-15T01:28:01;148382.56;;;-1.79;100.00
44926;BME280;30662;51.210;7.656;2024-01-15T01:30:28;148373.78;;;-1.82;100.00
44926;BME280;30662;51.210;7.656;2024-01-15T01:32:55;148365.03;;;-1.86;100.00
44926;BME280;30662;51.210;7.656;2024-01-15T01:35:22;148357.47;;;-1.89;100.00
44926;BME280;30662;51.210;7.656;2024-01-15T01:37:48;148366.28;;;-1.85;100.00
44926;BME280;30662;51.210;7.656;2024-01-15T01:40:15;148365.03;;;-1.86;100.00
44926;BME280;30662;51.210;7.656;2024-01-15T01:42:42;148380.06;;;-1.80;100.00
44926;BME280;30662;51.210;7.656;2024-01-15T01:45:11;148375.03;;;-1.82;100.00
44926;BME280;30662;51.210;7.656;2024-01-15T01:47:38;148390.06;;;-1.76;100.00
44926;BME280;30662;51.210;7.656;2024-01-15T01:50:06;148398.88;;;-1.72;100.00
44926;BME280;30662;51.210;7.656;2024-01-15T01:52:33;148415.19;;;-1.65;100.00
44926;BME280;30662;51.210;7.656;2024-01-15T01:55:02;148433.97;;;-1.58;100.00
44926;BME280;30662;51.210;7.656;2024-01-15T01:57:30;148418.94;;;-1.64;100.00
44926;BME280;30662;51.210;7.656;2024-01-15T01:59:58;148396.38;;;-1.73;100.00
44926;BME280;30662;51.210;7.656;2024-01-15T02:02:27;148400.13;;;-1.72;100.00
44926;BME280;30662;51.210;7.656;2024-01-15T02:04:53;148401.38;;;-1.71;100.00
44926;BME280;30662;51.210;7.656;2024-01-15T02:07:20;148410.13;;;-1.68;100.00
44926;BME280;30662;51.210;7.656;2024-01-15T02:09:47;148411.38;;;-1.67;100.00
44926;BME280;30662;51.210;7.656;2024-01-15T02:12:14;148415.19;;;-1.65;100.00
44926;BME280;30662;51.210;7.656;2024-01-15T02:14:41;148415.19;;;-1.65;100.00
44926;BME280;30662;51.210;7.656;2024-01-15T02:17:08;148400.13;;;-1.72;100.00
44926;BME280;30662;51.210;7.656;2024-01-15T02:19:36;148410.13;;;-1.68;100.00
44926;BME280;30662;51.210;7.656;2024-01-15T02:22:03;148378.81;;;-1.80;100.00
44926;BME280;30662;51.210;7.656;2024-01-15T02:24:31;148401.38;;;-1.71;100.00
44926;BME280;30662;51.210;7.656;2024-01-15T02:26:58;148406.38;;;-1.69;100.00
44926;BME280;30662;51.210;7.656;2024-01-15T02:29:24;148412.69;;;-1.67;100.00
44926;BME280;30662;51.210;7.656;2024-01-15T02:31:51;148425.19;;;-1.61;100.00
44926;BME280;30662;51.210;7.656;2024-01-15T02:34:18;148411.38;;;-1.67;100.00
44926;BME280;30662;51.210;7.656;2024-01-15T02:36:45;148408.88;;;-1.68;100.00
44926;BME280;30662;51.210;7.656;2024-01-15T02:39:12;148420.19;;;-1.63;100.00
44926;BME280;30662;51.210;7.656;2024-01-15T02:41:40;148430.19;;;-1.59;100.00
44926;BME280;30662;51.210;7.656;2024-01-15T02:44:06;148407.63;;;-1.69;100.00
44926;BME280;30662;51.210;7.656;2024-01-15T02:46:33;148426.44;;;-1.61;100.00
44926;BME280;30662;51.210;7.656;2024-01-15T02:49:00;148441.50;;;-1.55;100.00
44926;BME280;30662;51.210;7.656;2024-01-15T02:51:27;148441.50;;;-1.55;100.00
44926;BME280;30662;51.210;7.656;2024-01-15T02:53:54;148444.00;;;-1.54;100.00
44926;BME280;30662;51.210;7.656;2024-01-15T02:56:20;148420.19;;;-1.63;100.00
44926;BME280;30662;51.210;7.656;2024-01-15T02:58:48;148410.13;;;-1.68;100.00
44926;BME280;30662;51.210;7.656;2024-01-15T03:01:17;148386.31;;;-1.77;100.00
44926;BME280;30662;51.210;7.656;2024-01-15T03:03:44;148385.06;;;-1.78;100.00
44926;BME280;30662;51.210;7.656;2024-01-15T03:06:11;148408.88;;;-1.68;100.00
44926;BME280;30662;51.210;7.656;2024-01-15T03:08:38;148421.44;;;-1.63;100.00
44926;BME280;30662;51.210;7.656;2024-01-15T03:11:05;148430.19;;;-1.59;100.00
44926;BME280;30662;51.210;7.656;2024-01-15T03:13:35;148417.69;;;-1.64;100.00
44926;BME280;30662;51.210;7.656;2024-01-15T03:16:04;148420.19;;;-1.63;100.00
44926;BME280;30662;51.210;7.656;2024-01-15T03:18:31;148428.94;;;-1.60;100.00
44926;BME280;30662;51.210;7.656;2024-01-15T03:20:58;148393.81;;;-1.74;100.00
44926;BME280;30662;51.210;7.656;2024-01-15T03:23:24;148412.69;;;-1.67;100.00
44926;BME280;30662;51.210;7.656;2024-01-15T03:25:51;148392.56;;;-1.75;100.00
44926;BME280;30662;51.210;7.656;2024-01-15T03:28:18;148378.81;;;-1.80;100.00
44926;BME280;30662;51.210;7.656;2024-01-15T03:30:44;148398.88;;;-1.72;100.00
44926;BME280;30662;51.210;7.656;2024-01-15T03:33:13;148395.13;;;-1.74;100.00
44926;BME280;30662;51.210;7.656;2024-01-15T03:35:39;148410.13;;;-1.68;100.00
44926;BME280;30662;51.210;7.656;2024-01-15T03:38:06;148421.44;;;-1.63;100.00
44926;BME280;30662;51.210;7.656;2024-01-15T03:40:33;148425.19;;;-1.61;100.00
44926;BME280;30662;51.210;7.656;2024-01-15T03:43:00;148431.47;;;-1.59;100.00
44926;BME280;30662;51.210;7.656;2024-01-15T03:45:26;148431.47;;;-1.59;100.00
44926;BME280;30662;51.210;7.656;2024-01-15T03:47:53;148411.38;;;-1.67;100.00
44926;BME280;30662;51.210;7.656;2024-01-15T03:50:21;148413.94;;;-1.66;100.00
44926;BME280;30662;51.210;7.656;2024-01-15T03:52:48;148403.88;;;-1.70;100.00
44926;BME280;30662;51.210;7.656;2024-01-15T03:55:15;148416.44;;;-1.65;100.00
44926;BME280;30662;51.210;7.656;2024-01-15T03:57:41;148431.47;;;-1.59;100.00
44926;BME280;30662;51.210;7.656;2024-01-15T04:00:09;148439.00;;;-1.56;100.00
44926;BME280;30662;51.210;7.656;2024-01-15T04:02:36;148441.50;;;-1.55;100.00
44926;BME280;30662;51.210;7.656;2024-01-15T04:05:03;148397.63;;;-1.73;100.00
44926;BME280;30662;51.210;7.656;2024-01-15T04:07:31;148413.94;;;-1.66;100.00
44926;BME280;30662;51.210;7.656;2024-01-15T04:10:01;148413.94;;;-1.66;100.00
44926;BME280;30662;51.210;7.656;2024-01-15T04:12:28;148430.19;;;-1.59;100.00
44926;BME280;30662;51.210;7.656;2024-01-15T04:14:54;148445.25;;;-1.53;100.00
44926;BME280;30662;51.210;7.656;2024-01-15T04:17:21;148410.13;;;-1.68;100.00
44926;BME280;30662;51.210;7.656;2024-01-15T04:19:48;148397.63;;;-1.73;100.00
44926;BME280;30662;51.210;7.656;2024-01-15T04:22:15;148439.00;;;-1.56;100.00
44926;BME280;30662;51.210;7.656;2024-01-15T04:24:43;148431.47;;;-1.59;100.00
44926;BME280;30662;51.210;7.656;2024-01-15T04:27:09;148408.88;;;-1.68;100.00
44926;BME280;30662;51.210;7.656;2024-01-15T04:29:37;148401.38;;;-1.71;100.00
44926;BME280;30662;51.210;7.656;2024-01-15T04:32:06;148428.94;;;-1.60;100.00
44926;BME280;30662;51.210;7.656;2024-01-15T04:34:33;148411.38;;;-1.67;100.00
44926;BME280;30662;51.210;7.656;2024-01-15T04:37:00;148416.44;;;-1.65;100.00
44926;BME280;30662;51.210;7.656;2024-01-15T04:39:27;148427.69;;;-1.60;100.00
44926;BME280;30662;51.210;7.656;2024-01-15T04:41:55;148412.69;;;-1.67;100.00
44926;BME280;30662;51.210;7.656;2024-01-15T04:44:22;148425.19;;;-1.61;100.00
44926;BME280;30662;51.210;7.656;2024-01-15T04:46:49;148445.25;;;-1.53;100.00
44926;BME280;30662;51.210;7.656;2024-01-15T04:49:15;148417.69;;;-1.64;100.00
44926;BME280;30662;51.210;7.656;2024-01-15T04:51:42;148413.94;;;-1.66;100.00
44926;BME280;30662;51.210;7.656;2024-01-15T04:54:09;148439.00;;;-1.56;100.00
44926;BME280;30662;51.210;7.656;2024-01-15T04:56:36;148428.94;;;-1.60;100.00
44926;BME280;30662;51.210;7.656;2024-01-15T04:59:04;148451.53;;;-1.51;100.00
44926;BME280;30662;51.210;7.656;2024-01-15T05:01:31;148423.94;;;-1.62;100.00
44926;BME280;30662;51.210;7.656;2024-01-15T05:03:58;148433.97;;;-1.58;100.00
44926;BME280;30662;51.210;7.656;2024-01-15T05:06:26;148437.72;;;-1.56;100.00
44926;BME280;30662;51.210;7.656;2024-01-15T05:08:53;148449.03;;;-1.52;100.00
44926;BME280;30662;51.210;7.656;2024-01-15T05:11:20;148440.25;;;-1.55;100.00
44926;BME280;30662;51.210;7.656;2024-01-15T05:13:47;148447.75;;;-1.52;100.00
44926;BME280;30662;51.210;7.656;2024-01-15T05:16:15;148422.69;;;-1.62;100.00
44926;BME280;30662;51.210;7.656;2024-01-15T05:18:41;148433.97;;;-1.58;100.00
44926;BME280;30662;51.210;7.656;2024-01-15T05:21:08;148454.03;;;-1.50;100.00
44926;BME280;30662;51.210;7.656;2024-01-15T05:23:35;148437.72;;;-1.56;100.00
44926;BME280;30662;51.210;7.656;2024-01-15T05:26:02;148451.53;;;-1.51;100.00
44926;BME280;30662;51.210;7.656;2024-01-15T05:28:29;148461.53;;;-1.47;100.00
44926;BME280;30662;51.210;7.656;2024-01-15T05:30:55;148426.44;;;-1.61;100.00
44926;BME280;30662;51.210;7.656;2024-01-15T05:33:23;148459.03;;;-1.48;100.00
44926;BME280;30662;51.210;7.656;2024-01-15T05:35:50;148469.09;;;-1.44;100.00
44926;BME280;30662;51.210;7.656;2024-01-15T05:38:17;148415.19;;;-1.65;100.00
44926;BME280;30662;51.210;7.656;2024-01-15T05:40:44;148423.94;;;-1.62;100.00
44926;BME280;30662;51.210;7.656;2024-01-15T05:43:11;148407.63;;;-1.69;100.00
44926;BME280;30662;51.210;7.656;2024-01-15T05:45:38;148432.72;;;-1.58;100.00
44926;BME280;30662;51.210;7.656;2024-01-15T05:48:05;148421.44;;;-1.63;100.00
44926;BME280;30662;51.210;7.656;2024-01-15T05:50:33;148428.94;;;-1.60;100.00
44926;BME280;30662;51.210;7.656;2024-01-15T05:53:00;148403.88;;;-1.70;100.00
44926;BME280;30662;51.210;7.656;2024-01-15T05:55:27;148423.94;;;-1.62;100.00
44926;BME280;30662;51.210;7.656;2024-01-15T05:57:54;148407.63;;;-1.69;100.00
44926;BME280;30662;51.210;7.656;2024-01-15T06:00:20;148423.94;;;-1.62;100.00
44926;BME280;30662;51.210;7.656;2024-01-15T06:02:47;148428.94;;;-1.60;100.00
44926;BME280;30662;51.210;7.656;2024-01-15T06:05:14;148425.19;;;-1.61;100.00
44926;BME280;30662;51.210;7.656;2024-01-15T06:07:42;148403.88;;;-1.70;100.00
44926;BME280;30662;51.210;7.656;2024-01-15T06:10:09;148397.63;;;-1.73;100.00
44926;BME280;30662;51.210;7.656;2024-01-15T06:12:36;148428.94;;;-1.60;100.00
44926;BME280;30662;51.210;7.656;2024-01-15T06:15:03;148398.88;;;-1.72;100.00
44926;BME280;30662;51.210;7.656;2024-01-15T06:17:30;148426.44;;;-1.61;100.00
44926;BME280;30662;51.210;7.656;2024-01-15T06:20:00;148417.69;;;-1.64;100.00
44926;BME280;30662;51.210;7.656;2024-01-15T06:22:27;148413.94;;;-1.66;100.00
44926;BME280;30662;51.210;7.656;2024-01-15T06:24:55;148401.38;;;-1.71;100.00
44926;BME280;30662;51.210;7.656;2024-01-15T06:27:22;148400.13;;;-1.72;100.00
44926;BME280;30662;51.210;7.656;2024-01-15T06:29:49;148400.13;;;-1.72;100.00
44926;BME280;30662;51.210;7.656;2024-01-15T06:32:17;148378.81;;;-1.80;100.00
44926;BME280;30662;51.210;7.656;2024-01-15T06:34:43;148373.78;;;-1.82;100.00
44926;BME280;30662;51.210;7.656;2024-01-15T06:37:10;148406.38;;;-1.69;100.00
44926;BME280;30662;51.210;7.656;2024-01-15T06:39:37;148393.81;;;-1.74;100.00
44926;BME280;30662;51.210;7.656;2024-01-15T06:42:05;148393.81;;;-1.74;100.00
44926;BME280;30662;51.210;7.656;2024-01-15T06:44:32;148407.63;;;-1.69;100.00
44926;BME280;30662;51.210;7.656;2024-01-15T06:46:59;148381.31;;;-1.79;100.00
44926;BME280;30662;51.210;7.656;2024-01-15T06:49:25;148367.53;;;-1.85;100.00
44926;BME280;30662;51.210;7.656;2024-01-15T06:51:52;148387.56;;;-1.77;100.00
44926;BME280;30662;51.210;7.656;2024-01-15T06:54:19;148416.44;;;-1.65;100.00
44926;BME280;30662;51.210;7.656;2024-01-15T06:56:46;148403.88;;;-1.70;100.00
44926;BME280;30662;51.210;7.656;2024-01-15T06:59:14;148385.06;;;-1.78;100.00
44926;BME280;30662;51.210;7.656;2024-01-15T07:01:44;148391.31;;;-1.75;100.00
44926;BME280;30662;51.210;7.656;2024-01-15T07:04:11;148406.38;;;-1.69;100.00
44926;BME280;30662;51.210;7.656;2024-01-15T07:06:38;148432.72;;;-1.58;100.00
44926;BME280;30662;51.210;7.656;2024-01-15T07:09:04;148402.63;;;-1.71;100.00
44926;BME280;30662;51.210;7.656;2024-01-15T07:11:31;148405.13;;;-1.70;100.00
44926;BME280;30662;51.210;7.656;2024-01-15T07:13:58;148411.38;;;-1.67;100.00
44926;BME280;30662;51.210;7.656;2024-01-15T07:16:26;148425.19;;;-1.61;100.00
44926;BME280;30662;51.210;7.656;2024-01-15T07:19:03;148425.19;;;-1.61;100.00
44926;BME280;30662;51.210;7.656;2024-01-15T07:21:30;148413.94;;;-1.66;100.00
44926;BME280;30662;51.210;7.656;2024-01-15T07:23:57;148422.69;;;-1.62;100.00
44926;BME280;30662;51.210;7.656;2024-01-15T07:26:24;148435.22;;;-1.57;100.00
44926;BME280;30662;51.210;7.656;2024-01-15T07:28:51;148428.94;;;-1.60;100.00
44926;BME280;30662;51.210;7.656;2024-01-15T07:31:18;148411.38;;;-1.67;100.00
44926;BME280;30662;51.210;7.656;2024-01-15T07:33:46;148410.13;;;-1.68;100.00
44926;BME280;30662;51.210;7.656;2024-01-15T07:36:13;148416.44;;;-1.65;100.00
44926;BME280;30662;51.210;7.656;2024-01-15T07:38:40;148446.50;;;-1.53;100.00
44926;BME280;30662;51.210;7.656;2024-01-15T07:41:06;148427.69;;;-1.60;100.00
44926;BME280;30662;51.210;7.656;2024-01-15T07:43:33;148433.97;;;-1.58;100.00
44926;BME280;30662;51.210;7.656;2024-01-15T07:46:00;148449.03;;;-1.52;100.00
44926;BME280;30662;51.210;7.656;2024-01-15T07:48:27;148457.78;;;-1.48;100.00
44926;BME280;30662;51.210;7.656;2024-01-15T07:50:55;148475.34;;;-1.41;100.00
44926;BME280;30662;51.210;7.656;2024-01-15T07:53:22;148454.03;;;-1.50;100.00
44926;BME280;30662;51.210;7.656;2024-01-15T07:55:49;148474.09;;;-1.42;100.00
44926;BME280;30662;51.210;7.656;2024-01-15T07:58:16;148433.97;;;-1.58;100.00
44926;BME280;30662;51.210;7.656;2024-01-15T08:00:43;148444.00;;;-1.54;100.00
44926;BME280;30662;51.210;7.656;2024-01-15T08:03:10;148447.75;;;-1.52;100.00
44926;BME280;30662;51.210;7.656;2024-01-15T08:05:38;148456.53;;;-1.49;100.00
44926;BME280;30662;51.210;7.656;2024-01-15T08:08:06;148469.09;;;-1.44;100.00
44926;BME280;30662;51.210;7.656;2024-01-15T08:10:33;148494.16;;;-1.33;100.00
44926;BME280;30662;51.210;7.656;2024-01-15T08:13:00;148500.41;;;-1.31;100.00
44926;BME280;30662;51.210;7.656;2024-01-15T08:15:27;148506.72;;;-1.28;100.00
44926;BME280;30662;51.210;7.656;2024-01-15T08:17:57;148497.91;;;-1.32;100.00
44926;BME280;30662;51.210;7.656;2024-01-15T08:20:24;148491.66;;;-1.34;100.00
44926;BME280;30662;51.210;7.656;2024-01-15T08:22:51;148501.72;;;-1.30;100.00
44926;BME280;30662;51.210;7.656;2024-01-15T08:25:19;148496.66;;;-1.32;100.00
44926;BME280;30662;51.210;7.656;2024-01-15T08:27:46;148481.59;;;-1.39;100.00
44926;BME280;30662;51.210;7.656;2024-01-15T08:30:13;148480.34;;;-1.39;100.00
44926;BME280;30662;51.210;7.656;2024-01-15T08:32:40;148472.84;;;-1.42;100.00
44926;BME280;30662;51.210;7.656;2024-01-15T08:35:07;148502.97;;;-1.30;100.00
44926;BME280;30662;51.210;7.656;2024-01-15T08:37:34;148499.16;;;-1.31;100.00
44926;BME280;30662;51.210;7.656;2024-01-15T08:40:01;148494.16;;;-1.33;100.00
44926;BME280;30662;51.210;7.656;2024-01-15T08:42:30;148494.16;;;-1.33;100.00
44926;BME280;30662;51.210;7.656;2024-01-15T08:44:58;148477.84;;;-1.40;100.00
44926;BME280;30662;51.210;7.656;2024-01-15T08:47:25;148484.16;;;-1.37;100.00
44926;BME280;30662;51.210;7.656;2024-01-15T08:49:52;148461.53;;;-1.47;100.00
44926;BME280;30662;51.210;7.656;2024-01-15T08:52:19;148475.34;;;-1.41;100.00
44926;BME280;30662;51.210;7.656;2024-01-15T08:54:45;148495.41;;;-1.33;100.00
44926;BME280;30662;51.210;7.656;2024-01-15T08:57:12;148497.91;;;-1.32;100.00
44926;BME280;30662;51.210;7.656;2024-01-15T08:59:40;148464.03;;;-1.46;100.00
44926;BME280;30662;51.210;7.656;2024-01-15T09:02:08;148479.09;;;-1.40;100.00
44926;BME280;30662;51.210;7.656;2024-01-15T09:04:34;148471.59;;;-1.43;100.00
44926;BME280;30662;51.210;7.656;2024-01-15T09:07:01;148481.59;;;-1.39;100.00
44926;BME280;30662;51.210;7.656;2024-01-15T09:09:28;148490.41;;;-1.35;100.00
44926;BME280;30662;51.210;7.656;2024-01-15T09:11:55;148486.66;;;-1.36;100.00
44926;BME280;30662;51.210;7.656;2024-01-15T09:14:21;148462.78;;;-1.46;100.00
44926;BME280;30662;51.210;7.656;2024-01-15T09:17:04;148490.41;;;-1.35;100.00
44926;BME280;30662;51.210;7.656;2024-01-15T09:19:31;148476.59;;;-1.41;100.00
44926;BME280;30662;51.210;7.656;2024-01-15T09:21:58;148484.16;;;-1.37;100.00
44926;BME280;30662;51.210;7.656;2024-01-15T09:24:25;148494.16;;;-1.33;100.00
44926;BME280;30662;51.210;7.656;2024-01-15T09:26:54;148477.84;;;-1.40;100.00
44926;BME280;30662;51.210;7.656;2024-01-15T09:29:21;148514.22;;;-1.25;100.00
44926;BME280;30662;51.210;7.656;2024-01-15T09:31:48;148535.53;;;-1.17;100.00
44926;BME280;30662;51.210;7.656;2024-01-15T09:34:16;148486.66;;;-1.36;100.00
44926;BME280;30662;51.210;7.656;2024-01-15T09:36:43;148469.09;;;-1.44;100.00
44926;BME280;30662;51.210;7.656;2024-01-15T09:39:10;148489.16;;;-1.35;100.00
44926;BME280;30662;51.210;7.656;2024-01-15T09:41:36;148482.84;;;-1.38;100.00
44926;BME280;30662;51.210;7.656;2024-01-15T09:44:04;148474.09;;;-1.42;100.00
44926;BME280;30662;51.210;7.656;2024-01-15T09:46:31;148477.84;;;-1.40;100.00
44926;BME280;30662;51.210;7.656;2024-01-15T09:48:58;148504.22;;;-1.29;100.00
44926;BME280;30662;51.210;7.656;2024-01-15T09:51:28;148474.09;;;-1.42;100.00
44926;BME280;30662;51.210;7.656;2024-01-15T09:53:57;148501.72;;;-1.30;100.00
44926;BME280;30662;51.210;7.656;2024-01-15T09:56:24;148504.22;;;-1.29;100.00
44926;BME280;30662;51.210;7.656;2024-01-15T09:58:51;148523.03;;;-1.22;100.00
44926;BME280;30662;51.210;7.656;2024-01-15T10:01:20;148550.59;;;-1.11;100.00
44926;BME280;30662;51.210;7.656;2024-01-15T10:03:47;148554.34;;;-1.09;100.00
44926;BME280;30662;51.210;7.656;2024-01-15T10:06:15;148494.16;;;-1.33;100.00
44926;BME280;30662;51.210;7.656;2024-01-15T10:08:48;148500.41;;;-1.31;100.00
44926;BME280;30662;51.210;7.656;2024-01-15T10:11:15;148534.28;;;-1.17;100.00
44926;BME280;30662;51.210;7.656;2024-01-15T10:13:43;148535.53;;;-1.17;100.00
44926;BME280;30662;51.210;7.656;2024-01-15T10:16:12;148535.53;;;-1.17;100.00
44926;BME280;30662;51.210;7.656;2024-01-15T10:18:38;148541.84;;;-1.14;100.00
44926;BME280;30662;51.210;7.656;2024-01-15T10:21:06;148530.53;;;-1.19;100.00
44926;BME280;30662;51.210;7.656;2024-01-15T10:23:33;148551.84;;;-1.10;100.00
44926;BME280;30662;51.210;7.656;2024-01-15T10:26:02;148539.34;;;-1.15;100.00
44926;BME280;30662;51.210;7.656;2024-01-15T10:28:30;148539.34;;;-1.15;100.00
44926;BME280;30662;51.210;7.656;2024-01-15T10:30:58;148548.09;;;-1.12;100.00
44926;BME280;30662;51.210;7.656;2024-01-15T10:33:25;148563.16;;;-1.05;100.00
44926;BME280;30662;51.210;7.656;2024-01-15T10:35:53;148560.66;;;-1.06;100.00
44926;BME280;30662;51.210;7.656;2024-01-15T10:38:21;148566.91;;;-1.04;100.00
44926;BME280;30662;51.210;7.656;2024-01-15T10:40:47;148578.22;;;-0.99;100.00
44926;BME280;30662;51.210;7.656;2024-01-15T10:43:16;148580.72;;;-0.98;100.00
44926;BME280;30662;51.210;7.656;2024-01-15T10:45:46;148592.03;;;-0.94;100.00
44926;BME280;30662;51.210;7.656;2024-01-15T10:48:13;148579.47;;;-0.99;100.00
44926;BME280;30662;51.210;7.656;2024-01-15T10:50:41;148571.91;;;-1.02;100.00
44926;BME280;30662;51.210;7.656;2024-01-15T10:53:08;148583.22;;;-0.97;100.00
44926;BME280;30662;51.210;7.656;2024-01-15T10:55:37;148546.84;;;-1.12;100.00
44926;BME280;30662;51.210;7.656;2024-01-15T10:58:04;148549.34;;;-1.11;100.00
44926;BME280;30662;51.210;7.656;2024-01-15T11:00:33;148548.09;;;-1.12;100.00
44926;BME280;30662;51.210;7.656;2024-01-15T11:03:01;148546.84;;;-1.12;100.00
44926;BME280;30662;51.210;7.656;2024-01-15T11:05:28;148546.84;;;-1.12;100.00
44926;BME280;30662;51.210;7.656;2024-01-15T11:07:55;148573.22;;;-1.01;100.00
44926;BME280;30662;51.210;7.656;2024-01-15T11:10:41;148600.78;;;-0.90;100.00
44926;BME280;30662;51.210;7.656;2024-01-15T11:13:10;148590.72;;;-0.94;100.00
44926;BME280;30662;51.210;7.656;2024-01-15T11:15:57;148618.34;;;-0.83;100.00
44926;BME280;30662;51.210;7.656;2024-01-15T11:18:26;148579.47;;;-0.99;100.00
44926;BME280;30662;51.210;7.656;2024-01-15T11:21:25;148603.28;;;-0.89;100.00
44926;BME280;30662;51.210;7.656;2024-01-15T11:23:53;148561.91;;;-1.06;100.00
44926;BME280;30662;51.210;7.656;2024-01-15T11:26:32;148580.72;;;-0.98;100.00
44926;BME280;30662;51.210;7.656;2024-01-15T11:29:00;148568.16;;;-1.03;100.00
44926;BME280;30662;51.210;7.656;2024-01-15T11:31:29;148570.66;;;-1.02;100.00
44926;BME280;30662;51.210;7.656;2024-01-15T11:34:16;148584.47;;;-0.97;100.00
44926;BME280;30662;51.210;7.656;2024-01-15T11:37:01;148556.91;;;-1.08;100.00
44926;BME280;30662;51.210;7.656;2024-01-15T11:39:41;148539.34;;;-1.15;100.00
44926;BME280;30662;51.210;7.656;2024-01-15T11:42:10;148526.78;;;-1.20;100.00
44926;BME280;30662;51.210;7.656;2024-01-15T11:44:37;148540.59;;;-1.15;100.00
44926;BME280;30662;51.210;7.656;2024-01-15T11:47:06;148544.34;;;-1.13;100.00
44926;BME280;30662;51.210;7.656;2024-01-15T11:49:59;148544.34;;;-1.13;100.00
44926;BME280;30662;51.210;7.656;2024-01-15T11:52:32;148535.53;;;-1.17;100.00
44926;BME280;30662;51.210;7.656;2024-01-15T11:55:02;148540.59;;;-1.15;100.00
44926;BME280;30662;51.210;7.656;2024-01-15T11:57:40;148516.72;;;-1.24;100.00
44926;BME280;30662;51.210;7.656;2024-01-15T12:00:09;148502.97;;;-1.30;100.00
44926;BME280;30662;51.210;7.656;2024-01-15T12:02:38;148496.66;;;-1.32;100.00
44926;BME280;30662;51.210;7.656;2024-01-15T12:05:06;148523.03;;;-1.22;100.00
44926;BME280;30662;51.210;7.656;2024-01-15T12:07:33;148525.53;;;-1.21;100.00
44926;BME280;30662;51.210;7.656;2024-01-15T12:10:00;148545.59;;;-1.13;100.00
44926;BME280;30662;51.210;7.656;2024-01-15T12:12:32;148520.53;;;-1.23;100.00
44926;BME280;30662;51.210;7.656;2024-01-15T12:15:03;148541.84;;;-1.14;100.00
44926;BME280;30662;51.210;7.656;2024-01-15T12:17:30;148535.53;;;-1.17;100.00
44926;BME280;30662;51.210;7.656;2024-01-15T12:20:02;148534.28;;;-1.17;100.00
44926;BME280;30662;51.210;7.656;2024-01-15T12:22:29;148523.03;;;-1.22;100.00
44926;BME280;30662;51.210;7.656;2024-01-15T12:25:19;148541.84;;;-1.14;100.00
44926;BME280;30662;51.210;7.656;2024-01-15T12:27:46;148578.22;;;-0.99;100.00
44926;BME280;30662;51.210;7.656;2024-01-15T12:30:13;148540.59;;;-1.15;100.00
44926;BME280;30662;51.210;7.656;2024-01-15T12:32:41;148524.28;;;-1.21;100.00
44926;BME280;30662;51.210;7.656;2024-01-15T12:35:10;148561.91;;;-1.06;100.00
44926;BME280;30662;51.210;7.656;2024-01-15T12:37:37;148559.41;;;-1.07;100.00
44926;BME280;30662;51.210;7.656;2024-01-15T12:40:05;148555.66;;;-1.08;100.00
44926;BME280;30662;51.210;7.656;2024-01-15T12:42:32;148530.53;;;-1.19;100.00
44926;BME280;30662;51.210;7.656;2024-01-15T12:44:59;148559.41;;;-1.07;100.00